Terminal Aerodrome Forecast
Issued by NWS

Home | Current Version | Previous Version | Text Only | Print | Product List | Glossary On
Versions: 1 2 3 4 5 6 7 8 9 10 11 12 13 14 15 16 17 18 19 20 21 22 23 24 25 26 27 28 29 30 31 32 33 34 35 36
000
FTUS43 KDLH 281002 AAG
TAFHIB
TAF AMD
KHIB 281002Z 2810/2906 00000KT P6SM OVC002
     FM281400 20005KT P6SM BKN050
     FM282100 21008G16KT P6SM VCSH OVC035
     FM290300 19007KT P6SM VCSH BKN025=

USA.gov is the U.S. government's official web portal to all federal, state and local government web resources and services.